createdAt,value
2022-10-23T00:01:16.286Z,6.83
2022-10-23T00:03:43.178Z,7.53
2022-10-23T00:06:09.859Z,7.43
2022-10-23T00:08:36.472Z,7.18
2022-10-23T00:11:09.748Z,8.00
2022-10-23T00:13:36.197Z,7.40
2022-10-23T00:16:02.865Z,7.03
2022-10-23T00:18:29.316Z,7.47
2022-10-23T00:20:56.261Z,7.63
2022-10-23T00:23:22.815Z,7.57
2022-10-23T00:25:49.426Z,7.10
2022-10-23T00:28:15.879Z,7.80
2022-10-23T00:30:42.477Z,7.53
2022-10-23T00:33:10.227Z,7.50
2022-10-23T00:35:40.556Z,7.07
2022-10-23T00:38:07.790Z,7.23
2022-10-23T00:40:35.345Z,7.65
2022-10-23T00:43:02.262Z,8.55
2022-10-23T00:45:33.575Z,8.38
2022-10-23T00:48:01.373Z,7.90
2022-10-23T00:50:30.400Z,7.30
2022-10-23T00:52:59.956Z,7.78
2022-10-23T00:55:26.959Z,9.07
2022-10-23T00:57:53.619Z,7.32
2022-10-23T01:00:40.298Z,7.28
2022-10-23T01:03:07.051Z,8.33
2022-10-23T01:05:41.532Z,7.82
2022-10-23T01:08:15.408Z,8.38
2022-10-23T01:10:47.801Z,8.57
2022-10-23T01:13:43.438Z,7.53
2022-10-23T01:16:24.184Z,7.90
2022-10-23T01:19:17.049Z,8.15
2022-10-23T01:22:13.418Z,7.88
2022-10-23T01:24:46.047Z,8.15
2022-10-23T01:27:34.589Z,8.68
2022-10-23T01:30:03.650Z,8.37
2022-10-23T01:32:48.242Z,8.23
2022-10-23T01:35:24.057Z,9.70
2022-10-23T01:38:18.390Z,9.75
2022-10-23T01:40:49.442Z,9.70
2022-10-23T01:43:20.364Z,9.87
2022-10-23T01:45:50.972Z,9.10
2022-10-23T01:48:20.499Z,9.50
2022-10-23T01:50:47.351Z,10.18
2022-10-23T01:53:13.852Z,10.13
2022-10-23T01:58:13.955Z,9.75
2022-10-23T02:00:41.513Z,10.65
2022-10-23T02:03:08.936Z,10.10
2022-10-23T02:05:35.709Z,10.05
2022-10-23T02:08:02.854Z,10.50
2022-10-23T02:10:42.023Z,9.95
2022-10-23T02:13:26.282Z,10.40
2022-10-23T02:16:04.049Z,9.82
2022-10-23T02:19:12.382Z,10.27
2022-10-23T02:21:48.659Z,10.33
2022-10-23T02:24:17.974Z,10.57
2022-10-23T02:27:05.222Z,10.38
2022-10-23T02:29:35.782Z,10.40
2022-10-23T02:32:02.322Z,10.52
2022-10-23T02:34:28.802Z,9.60
2022-10-23T02:36:55.272Z,9.60
2022-10-23T02:39:24.140Z,9.93
2022-10-23T02:41:56.435Z,9.40
2022-10-23T02:44:28.671Z,9.68
2022-10-23T02:47:33.691Z,10.03
2022-10-23T02:50:05.800Z,10.02
2022-10-23T02:53:03.605Z,10.27
2022-10-23T02:55:45.215Z,9.77
2022-10-23T02:58:28.417Z,9.70
2022-10-23T03:01:00.119Z,9.43
2022-10-23T03:03:36.533Z,8.50
2022-10-23T03:06:03.299Z,8.95
2022-10-23T03:08:29.760Z,9.68
2022-10-23T03:10:56.330Z,10.38
2022-10-23T03:13:23.372Z,10.53
2022-10-23T03:15:49.811Z,10.15
2022-10-23T03:18:16.271Z,10.05
2022-10-23T03:20:42.700Z,8.77
2022-10-23T03:23:12.440Z,9.35
2022-10-23T03:25:38.948Z,8.47
2022-10-23T03:28:05.380Z,9.82
2022-10-23T03:30:32.046Z,9.25
2022-10-23T03:32:58.599Z,8.65
2022-10-23T03:35:25.029Z,9.52
2022-10-23T03:37:51.461Z,10.20
2022-10-23T03:40:17.922Z,11.15
2022-10-23T03:42:44.338Z,10.05
2022-10-23T03:45:10.763Z,9.63
2022-10-23T03:47:41.347Z,12.13
2022-10-23T03:50:09.477Z,10.70
2022-10-23T03:52:35.913Z,12.50
2022-10-23T03:55:02.634Z,11.30
2022-10-23T03:57:29.086Z,11.77
2022-10-23T03:59:55.590Z,11.43
2022-10-23T04:02:22.181Z,10.77
2022-10-23T04:04:48.684Z,11.07
2022-10-23T04:07:15.127Z,11.35
2022-10-23T04:09:41.619Z,12.48
2022-10-23T04:12:09.334Z,11.57
2022-10-23T04:14:35.772Z,11.37
2022-10-23T04:17:02.232Z,10.57
2022-10-23T04:19:28.657Z,11.13
2022-10-23T04:21:55.163Z,10.85
2022-10-23T04:24:21.620Z,11.10
2022-10-23T04:26:48.048Z,10.73
2022-10-23T04:29:14.494Z,10.93
2022-10-23T04:31:40.950Z,10.90
2022-10-23T04:34:07.396Z,10.48
2022-10-23T04:36:33.948Z,11.07
2022-10-23T04:39:00.478Z,10.73
2022-10-23T04:41:27.054Z,11.20
2022-10-23T04:43:53.470Z,9.63
2022-10-23T04:46:20.065Z,9.82
2022-10-23T04:48:46.497Z,10.90
2022-10-23T04:51:16.040Z,10.97
2022-10-23T04:53:42.495Z,10.50
2022-10-23T04:56:13.862Z,10.23
2022-10-23T04:58:41.279Z,10.40
2022-10-23T05:01:10.609Z,9.90
2022-10-23T05:03:38.041Z,10.30
2022-10-23T05:06:05.394Z,10.48
2022-10-23T05:08:32.356Z,10.55
2022-10-23T05:10:58.923Z,11.35
2022-10-23T05:13:25.486Z,11.75
2022-10-23T05:15:52.242Z,11.90
2022-10-23T05:18:23.251Z,11.23
2022-10-23T05:20:53.480Z,11.43
2022-10-23T05:23:21.234Z,12.65
2022-10-23T05:25:47.662Z,12.90
2022-10-23T05:28:14.129Z,12.93
2022-10-23T05:30:40.589Z,12.95
2022-10-23T05:33:07.032Z,12.73
2022-10-23T05:35:33.774Z,10.50
2022-10-23T05:38:02.044Z,10.30
2022-10-23T05:40:28.611Z,9.77
2022-10-23T05:42:55.249Z,9.80
2022-10-23T05:45:21.882Z,10.57
2022-10-23T05:47:49.240Z,11.75
2022-10-23T05:50:15.845Z,12.68
2022-10-23T05:52:42.682Z,12.23
2022-10-23T05:55:09.860Z,12.55
2022-10-23T05:57:36.415Z,12.30
2022-10-23T06:00:03.241Z,11.27
2022-10-23T06:02:29.770Z,10.95
2022-10-23T06:04:56.301Z,11.23
2022-10-23T06:07:27.705Z,11.07
2022-10-23T06:09:56.420Z,11.32
2022-10-23T06:12:23.273Z,11.20
2022-10-23T06:14:50.978Z,10.57
2022-10-23T06:17:18.418Z,10.43
2022-10-23T06:19:46.118Z,12.13
2022-10-23T06:22:12.684Z,16.13
2022-10-23T06:24:39.188Z,14.95
2022-10-23T06:27:05.693Z,15.40
2022-10-23T06:29:35.470Z,14.50
2022-10-23T06:32:02.252Z,15.77
2022-10-23T06:34:28.706Z,15.77
2022-10-23T06:36:55.166Z,16.25
2022-10-23T06:39:22.198Z,16.38
2022-10-23T06:41:48.673Z,15.70
2022-10-23T06:44:15.132Z,16.65
2022-10-23T06:46:41.627Z,16.38
2022-10-23T06:49:08.137Z,17.38
2022-10-23T06:51:34.600Z,17.70
2022-10-23T06:54:01.070Z,16.23
2022-10-23T06:56:29.306Z,17.30
2022-10-23T06:58:56.569Z,16.40
2022-10-23T07:01:23.120Z,16.52
2022-10-23T07:03:49.669Z,16.23
2022-10-23T07:06:16.162Z,14.40
2022-10-23T07:08:42.651Z,15.55
2022-10-23T07:11:11.079Z,15.10
2022-10-23T07:13:38.631Z,14.55
2022-10-23T07:16:32.049Z,14.80
2022-10-23T07:19:01.098Z,13.87
2022-10-23T07:21:29.822Z,14.57
2022-10-23T07:23:57.846Z,13.88
2022-10-23T07:26:24.704Z,14.13
2022-10-23T07:28:55.057Z,12.93
2022-10-23T07:31:28.028Z,13.27
2022-10-23T07:33:55.964Z,13.07
2022-10-23T07:36:22.513Z,15.02
2022-10-23T07:38:49.045Z,12.43
2022-10-23T07:41:16.017Z,13.60
2022-10-23T07:43:42.583Z,12.53
2022-10-23T07:46:10.004Z,12.13
2022-10-23T07:48:38.258Z,12.38
2022-10-23T07:51:08.570Z,12.15
2022-10-23T07:53:53.713Z,11.38
2022-10-23T07:56:26.339Z,11.93
2022-10-23T07:58:56.028Z,12.35
2022-10-23T08:01:33.233Z,11.75
2022-10-23T08:04:00.384Z,10.50
2022-10-23T08:06:27.156Z,11.00
2022-10-23T08:08:53.663Z,11.23
2022-10-23T08:11:26.706Z,10.65
2022-10-23T08:13:54.501Z,10.77
2022-10-23T08:16:21.771Z,11.57
2022-10-23T08:18:49.577Z,12.07
2022-10-23T08:21:16.986Z,10.93
2022-10-23T08:23:44.144Z,11.55
2022-10-23T08:26:11.471Z,10.07
2022-10-23T08:28:39.221Z,10.52
2022-10-23T08:31:18.263Z,9.95
2022-10-23T08:33:44.948Z,10.07
2022-10-23T08:36:26.050Z,9.82
2022-10-23T08:38:54.448Z,9.23
2022-10-23T08:42:06.053Z,8.80
2022-10-23T08:44:48.765Z,7.90
2022-10-23T08:47:19.967Z,7.53
2022-10-23T08:49:50.246Z,7.75
2022-10-23T08:52:19.733Z,7.18
2022-10-23T08:54:54.628Z,7.10
2022-10-23T08:57:24.069Z,6.72
2022-10-23T08:59:59.320Z,6.60
2022-10-23T09:02:30.708Z,6.95
2022-10-23T09:04:58.100Z,6.70
2022-10-23T09:07:42.134Z,6.65
2022-10-23T09:10:24.039Z,6.28
2022-10-23T09:12:50.620Z,5.43
2022-10-23T09:15:28.390Z,5.90
2022-10-23T09:18:04.784Z,5.35
2022-10-23T09:20:35.580Z,5.40
2022-10-23T09:23:08.040Z,5.43
2022-10-23T09:25:37.859Z,5.13
2022-10-23T09:28:05.702Z,5.07
2022-10-23T09:30:39.434Z,4.78
2022-10-23T09:33:15.155Z,4.30
2022-10-23T09:35:53.324Z,4.07
2022-10-23T09:38:36.208Z,3.33
2022-10-23T09:41:28.983Z,3.38
2022-10-23T09:44:07.693Z,3.20
2022-10-23T09:46:45.716Z,2.70
2022-10-23T09:49:22.830Z,3.25
2022-10-23T09:51:54.417Z,2.90
2022-10-23T09:54:24.063Z,2.92
2022-10-23T09:56:51.595Z,2.60
2022-10-23T09:59:24.284Z,2.78
2022-10-23T10:01:51.993Z,2.10
2022-10-23T10:04:18.948Z,2.10
2022-10-23T10:06:45.601Z,2.10
2022-10-23T10:09:14.170Z,2.00
2022-10-23T10:11:52.331Z,2.00
2022-10-23T10:14:36.112Z,2.13
2022-10-23T10:17:38.402Z,2.40
2022-10-23T10:20:42.602Z,2.10
2022-10-23T10:23:24.363Z,2.30
2022-10-23T10:26:18.978Z,2.47
2022-10-23T10:29:09.515Z,2.38
2022-10-23T10:32:02.955Z,2.70
2022-10-23T10:34:30.545Z,2.20
2022-10-23T10:37:00.175Z,2.20
2022-10-23T10:39:35.349Z,2.40
2022-10-23T10:42:38.928Z,2.40
2022-10-23T10:45:58.329Z,2.10
2022-10-23T10:48:49.742Z,2.50
2022-10-23T10:51:39.162Z,3.10
2022-10-23T10:54:19.084Z,3.10
2022-10-23T10:56:47.674Z,3.13
2022-10-23T10:59:22.478Z,3.10
2022-10-23T11:02:33.239Z,3.03
2022-10-23T11:05:15.330Z,3.15
2022-10-23T11:07:51.284Z,3.38
2022-10-23T11:10:19.104Z,3.05
2022-10-23T11:12:47.714Z,2.90
2022-10-23T11:15:41.254Z,2.75
2022-10-23T11:18:15.703Z,3.13
2022-10-23T11:20:50.947Z,3.13
2022-10-23T11:23:27.824Z,3.00
2022-10-23T11:26:06.603Z,3.13
2022-10-23T11:29:03.990Z,4.30
2022-10-23T11:31:38.932Z,4.40
2022-10-23T11:34:17.648Z,4.32
2022-10-23T11:36:49.959Z,4.40
2022-10-23T11:39:27.923Z,4.07
2022-10-23T11:42:05.097Z,4.47
2022-10-23T11:44:34.544Z,4.10
2022-10-23T11:47:06.561Z,3.90
2022-10-23T11:49:33.146Z,4.05
2022-10-23T11:52:01.696Z,3.47
2022-10-23T11:54:28.728Z,2.58
2022-10-23T11:57:10.342Z,2.78
2022-10-23T11:59:51.432Z,2.70
2022-10-23T12:02:40.551Z,2.90
2022-10-23T12:05:09.621Z,2.50
2022-10-23T12:07:37.516Z,2.60
2022-10-23T12:10:04.098Z,2.70
2022-10-23T12:12:40.881Z,2.60
2022-10-23T12:15:16.359Z,2.33
2022-10-23T12:17:43.907Z,2.70
2022-10-23T12:20:13.757Z,2.17
2022-10-23T12:23:02.131Z,2.40
2022-10-23T12:25:47.432Z,2.00
2022-10-23T12:28:40.211Z,2.38
2022-10-23T12:31:23.611Z,2.30
2022-10-23T12:34:01.601Z,2.20
2022-10-23T12:36:31.121Z,2.30
2022-10-23T12:38:58.750Z,2.15
2022-10-23T12:41:27.779Z,2.10
2022-10-23T12:44:02.915Z,2.10
2022-10-23T12:46:42.469Z,1.98
2022-10-23T12:49:18.119Z,2.10
2022-10-23T12:51:45.279Z,2.28
2022-10-23T12:54:20.147Z,1.90
2022-10-23T12:56:47.312Z,2.03
2022-10-23T12:59:16.940Z,2.22
2022-10-23T13:01:43.916Z,2.40
2022-10-23T13:04:10.819Z,1.77
2022-10-23T13:06:38.737Z,1.67
2022-10-23T13:09:06.663Z,1.77
2022-10-23T13:11:33.438Z,1.80
2022-10-23T13:14:00.048Z,2.10
2022-10-23T13:16:27.132Z,1.88
2022-10-23T13:18:54.479Z,1.95
2022-10-23T13:21:25.886Z,1.90
2022-10-23T13:23:52.918Z,2.22
2022-10-23T13:26:45.207Z,1.73
2022-10-23T13:29:21.615Z,1.80
2022-10-23T13:31:50.202Z,2.00
2022-10-23T13:34:29.695Z,1.80
2022-10-23T13:37:22.022Z,1.65
2022-10-23T13:40:18.985Z,1.98
2022-10-23T13:42:50.186Z,1.50
2022-10-23T13:45:21.277Z,1.40
2022-10-23T13:47:47.798Z,1.90
2022-10-23T13:50:14.452Z,1.83
2022-10-23T13:52:40.952Z,1.50
2022-10-23T13:55:20.959Z,1.65
2022-10-23T13:57:47.623Z,1.67
2022-10-23T14:00:15.311Z,1.60
2022-10-23T14:02:42.102Z,1.60
2022-10-23T14:05:09.360Z,1.73
2022-10-23T14:07:35.912Z,1.45
2022-10-23T14:10:02.453Z,1.50
2022-10-23T14:12:28.972Z,1.80
2022-10-23T14:14:55.474Z,1.60
2022-10-23T14:17:22.048Z,1.90
2022-10-23T14:19:48.557Z,1.70
2022-10-23T14:22:15.073Z,1.70
2022-10-23T14:27:08.168Z,1.80
2022-10-23T14:29:34.808Z,1.70
2022-10-23T14:32:01.404Z,1.77
2022-10-23T14:34:27.933Z,1.70
2022-10-23T14:37:07.975Z,1.60
2022-10-23T14:39:35.522Z,1.40
2022-10-23T14:42:02.014Z,1.27
2022-10-23T14:44:28.828Z,1.63
2022-10-23T14:46:55.482Z,1.60
2022-10-23T14:49:21.978Z,1.93
2022-10-23T14:51:48.492Z,1.50
2022-10-23T14:54:15.806Z,2.03
2022-10-23T14:56:42.459Z,1.75
2022-10-23T14:59:10.721Z,1.70
2022-10-23T15:01:47.232Z,2.17
2022-10-23T15:04:15.600Z,1.90
2022-10-23T15:06:42.874Z,2.40
2022-10-23T15:09:09.406Z,2.30
2022-10-23T15:11:37.434Z,2.47
2022-10-23T15:14:03.965Z,2.37
2022-10-23T15:16:30.783Z,3.15
2022-10-23T15:18:57.614Z,3.05
2022-10-23T15:21:24.206Z,3.45
2022-10-23T15:23:50.805Z,3.03
2022-10-23T15:26:22.900Z,4.20
2022-10-23T15:28:57.482Z,4.88
2022-10-23T15:31:54.562Z,4.88
2022-10-23T15:34:23.673Z,4.47
2022-10-23T15:36:50.791Z,5.22
2022-10-23T15:39:20.830Z,4.10
2022-10-23T15:41:48.068Z,4.38
2022-10-23T15:44:17.116Z,3.97
2022-10-23T15:46:43.886Z,4.15
2022-10-23T15:49:10.657Z,3.63
2022-10-23T15:51:37.999Z,3.30
2022-10-23T15:54:08.964Z,2.97
2022-10-23T15:56:35.625Z,3.30
2022-10-23T15:59:02.800Z,3.35
2022-10-23T16:01:29.471Z,3.70
2022-10-23T16:03:56.107Z,3.90
2022-10-23T16:06:23.008Z,3.88
2022-10-23T16:08:49.582Z,4.20
2022-10-23T16:11:24.663Z,5.10
2022-10-23T16:13:51.435Z,4.47
2022-10-23T16:16:18.283Z,5.00
2022-10-23T16:18:45.771Z,5.00
2022-10-23T16:21:20.225Z,4.72
2022-10-23T16:23:48.673Z,4.53
2022-10-23T16:26:17.572Z,5.88
2022-10-23T16:28:47.136Z,4.60
2022-10-23T16:31:20.365Z,5.43
2022-10-23T16:33:48.121Z,5.78
2022-10-23T16:36:14.739Z,5.57
2022-10-23T16:38:41.309Z,6.25
2022-10-23T16:41:07.915Z,7.00
2022-10-23T16:43:34.441Z,7.10
2022-10-23T16:46:21.674Z,7.40
2022-10-23T16:48:50.107Z,7.40
2022-10-23T16:51:19.385Z,6.68
2022-10-23T16:53:46.470Z,7.10
2022-10-23T16:56:18.071Z,6.90
2022-10-23T16:58:44.997Z,6.57
2022-10-23T17:01:19.123Z,6.93
2022-10-23T17:03:48.308Z,6.65
2022-10-23T17:06:18.708Z,6.33
2022-10-23T17:08:45.935Z,7.07
2022-10-23T17:11:18.048Z,7.28
2022-10-23T17:13:47.284Z,6.20
2022-10-23T17:16:21.235Z,5.57
2022-10-23T17:18:48.478Z,5.80
2022-10-23T17:21:16.810Z,5.70
2022-10-23T17:23:43.804Z,5.90
2022-10-23T17:26:12.561Z,6.10
2022-10-23T17:28:43.310Z,6.15
2022-10-23T17:31:21.016Z,6.30
2022-10-23T17:33:49.199Z,5.78
2022-10-23T17:36:16.448Z,6.53
2022-10-23T17:39:03.283Z,7.15
2022-10-23T17:41:29.786Z,6.30
2022-10-23T17:43:57.611Z,6.47
2022-10-23T17:46:25.063Z,6.47
2022-10-23T17:48:51.569Z,5.93
2022-10-23T17:51:20.951Z,6.50
2022-10-23T17:53:49.191Z,6.95
2022-10-23T17:56:27.607Z,7.37
2022-10-23T17:58:56.571Z,7.78
2022-10-23T18:01:25.141Z,7.78
2022-10-23T18:03:52.830Z,7.93
2022-10-23T18:06:28.878Z,8.55
2022-10-23T18:08:56.633Z,9.03
2022-10-23T18:11:25.360Z,9.45
2022-10-23T18:13:52.294Z,9.57
2022-10-23T18:16:19.363Z,10.68
2022-10-23T18:18:51.746Z,11.13
2022-10-23T18:21:20.104Z,11.57
2022-10-23T18:23:46.936Z,11.38
2022-10-23T18:26:18.781Z,11.35
2022-10-23T18:28:47.486Z,11.40
2022-10-23T18:31:15.779Z,10.88
2022-10-23T18:33:42.951Z,11.40
2022-10-23T18:36:13.885Z,10.98
2022-10-23T18:38:40.730Z,9.85
2022-10-23T18:41:07.197Z,10.50
2022-10-23T18:43:44.894Z,10.18
2022-10-23T18:46:14.930Z,10.93
2022-10-23T18:48:43.382Z,10.70
2022-10-23T18:51:15.876Z,10.20
2022-10-23T18:53:43.247Z,10.50
2022-10-23T18:56:09.701Z,11.27
2022-10-23T18:58:36.135Z,10.33
2022-10-23T19:01:02.731Z,10.65
2022-10-23T19:03:29.319Z,9.20
2022-10-23T19:05:55.850Z,9.18
2022-10-23T19:08:22.528Z,10.52
2022-10-23T19:10:50.520Z,9.43
2022-10-23T19:13:17.120Z,9.82
2022-10-23T19:15:44.366Z,10.00
2022-10-23T19:18:11.089Z,10.27
2022-10-23T19:20:37.602Z,10.30
2022-10-23T19:23:05.674Z,10.30
2022-10-23T19:25:34.558Z,10.85
2022-10-23T19:28:02.310Z,10.23
2022-10-23T19:30:29.382Z,10.07
2022-10-23T19:32:55.912Z,9.88
2022-10-23T19:35:22.656Z,9.70
2022-10-23T19:37:49.544Z,10.13
2022-10-23T19:40:16.254Z,10.43
2022-10-23T19:42:43.138Z,9.90
2022-10-23T19:45:12.240Z,10.15
2022-10-23T19:47:39.298Z,10.33
2022-10-23T19:50:06.706Z,9.88
2022-10-23T19:52:34.563Z,9.27
2022-10-23T19:55:04.580Z,9.50
2022-10-23T19:57:33.855Z,8.18
2022-10-23T20:00:01.131Z,8.90
2022-10-23T20:02:28.251Z,8.25
2022-10-23T20:04:55.229Z,8.25
2022-10-23T20:07:21.680Z,9.35
2022-10-23T20:09:48.723Z,9.07
2022-10-23T20:12:15.218Z,9.03
2022-10-23T20:14:41.694Z,9.98
2022-10-23T20:17:08.315Z,9.60
2022-10-23T20:19:35.007Z,9.50
2022-10-23T20:22:01.483Z,9.20
2022-10-23T20:24:28.030Z,9.23
2022-10-23T20:26:55.687Z,9.57
2022-10-23T20:29:22.931Z,9.15
2022-10-23T20:31:52.914Z,7.32
2022-10-23T20:34:19.582Z,9.00
2022-10-23T20:36:48.808Z,11.27
2022-10-23T20:39:18.262Z,11.05
2022-10-23T20:41:45.138Z,11.30
2022-10-23T20:44:13.904Z,12.85
2022-10-23T20:46:40.827Z,12.48
2022-10-23T20:49:07.392Z,13.27
2022-10-23T20:51:35.723Z,14.40
2022-10-23T20:54:02.551Z,14.93
2022-10-23T20:56:34.379Z,14.43
2022-10-23T20:59:12.201Z,12.32
2022-10-23T21:01:50.633Z,9.47
2022-10-23T21:04:20.093Z,9.32
2022-10-23T21:07:08.336Z,8.75
2022-10-23T21:09:33.308Z,10.27
2022-10-23T21:11:59.765Z,9.13
2022-10-23T21:14:27.185Z,7.97
2022-10-23T21:16:53.617Z,8.35
2022-10-23T21:19:20.071Z,10.82
2022-10-23T21:21:46.819Z,15.02
2022-10-23T21:24:17.038Z,17.30
2022-10-23T21:26:44.500Z,21.07
2022-10-23T21:29:20.098Z,21.65
2022-10-23T21:31:57.968Z,22.42
2022-10-23T21:34:25.590Z,21.13
2022-10-23T21:37:12.889Z,17.63
2022-10-23T21:39:38.714Z,13.80
2022-10-23T21:42:05.215Z,13.40
2022-10-23T21:44:31.648Z,14.90
2022-10-23T21:46:58.102Z,15.15
2022-10-23T21:49:24.540Z,19.90
2022-10-23T21:51:51.018Z,19.03
2022-10-23T21:54:17.513Z,17.20
2022-10-23T21:56:45.375Z,14.63
2022-10-23T21:59:22.610Z,12.18
2022-10-23T22:01:49.486Z,10.15
2022-10-23T22:04:17.487Z,10.70
2022-10-23T22:06:44.978Z,10.95
2022-10-23T22:09:18.970Z,10.82
2022-10-23T22:11:45.494Z,11.57
2022-10-23T22:14:11.951Z,12.10
2022-10-23T22:16:38.459Z,10.27
2022-10-23T22:19:04.931Z,10.35
2022-10-23T22:21:31.755Z,9.75
2022-10-23T22:23:59.859Z,10.15
2022-10-23T22:26:34.239Z,9.57
2022-10-23T22:29:06.421Z,9.73
2022-10-23T22:31:34.134Z,8.52
2022-10-23T22:34:13.097Z,9.25
2022-10-23T22:36:48.593Z,9.15
2022-10-23T22:39:15.040Z,9.20
2022-10-23T22:41:43.570Z,9.17
2022-10-23T22:44:11.584Z,9.00
2022-10-23T22:46:38.468Z,9.63
2022-10-23T22:51:32.418Z,9.20
2022-10-23T22:53:59.402Z,8.33
2022-10-23T22:56:27.922Z,9.05
2022-10-23T22:58:55.127Z,8.73
2022-10-23T23:01:27.793Z,9.00
2022-10-23T23:03:54.853Z,9.55
2022-10-23T23:06:21.881Z,8.67
2022-10-23T23:08:49.792Z,8.10
2022-10-23T23:11:17.710Z,10.57
2022-10-23T23:13:44.848Z,8.68
2022-10-23T23:16:28.587Z,8.05
2022-10-23T23:18:59.747Z,8.13
2022-10-23T23:21:26.712Z,10.13
2022-10-23T23:23:53.422Z,9.23
2022-10-23T23:26:20.039Z,9.40
2022-10-23T23:28:50.063Z,9.07
2022-10-23T23:31:18.961Z,8.20
2022-10-23T23:33:45.638Z,11.98
2022-10-23T23:36:13.890Z,13.05
2022-10-23T23:38:41.355Z,10.27
2022-10-23T23:41:12.511Z,10.23
2022-10-23T23:43:38.951Z,11.30
2022-10-23T23:46:05.698Z,10.02
2022-10-23T23:48:32.232Z,10.05
2022-10-23T23:50:58.655Z,11.20
2022-10-23T23:53:25.347Z,11.45
2022-10-23T23:55:51.789Z,10.53
2022-10-23T23:58:18.202Z,10.05
